createdAt,value
2023-03-19T00:00:29.338Z,1015.27
2023-03-19T00:01:29.296Z,1015.29
2023-03-19T00:02:29.341Z,1015.29
2023-03-19T00:03:29.339Z,1015.31
2023-03-19T00:04:29.269Z,1015.29
2023-03-19T00:05:29.249Z,1015.31
2023-03-19T00:06:29.242Z,1015.33
2023-03-19T00:07:29.230Z,1015.35
2023-03-19T00:08:29.212Z,1015.32
2023-03-19T00:09:29.188Z,1015.29
2023-03-19T00:10:29.184Z,1015.29
2023-03-19T00:11:29.190Z,1015.24
2023-03-19T00:12:29.198Z,1015.24
2023-03-19T00:13:29.139Z,1015.27
2023-03-19T00:14:29.156Z,1015.26
2023-03-19T00:15:29.109Z,1015.31
2023-03-19T00:16:29.145Z,1015.30
2023-03-19T00:17:29.103Z,1015.31
2023-03-19T00:18:29.100Z,1015.31
2023-03-19T00:19:29.072Z,1015.29
2023-03-19T00:20:29.051Z,1015.30
2023-03-19T00:21:30.633Z,1015.24
2023-03-19T00:22:29.085Z,1015.27
2023-03-19T00:23:29.012Z,1015.27
2023-03-19T00:24:29.002Z,1015.24
2023-03-19T00:25:28.977Z,1015.26
2023-03-19T00:26:28.988Z,1015.23
2023-03-19T00:27:28.956Z,1015.28
2023-03-19T00:28:28.966Z,1015.27
2023-03-19T00:29:28.937Z,1015.30
2023-03-19T00:30:28.941Z,1015.26
2023-03-19T00:31:28.912Z,1015.21
2023-03-19T00:32:28.895Z,1015.22
2023-03-19T00:33:28.894Z,1015.29
2023-03-19T00:34:28.856Z,1015.32
2023-03-19T00:35:28.851Z,1015.30
2023-03-19T00:36:28.842Z,1015.32
2023-03-19T00:37:28.820Z,1015.33
2023-03-19T00:38:28.827Z,1015.30
2023-03-19T00:39:28.802Z,1015.29
2023-03-19T00:40:28.781Z,1015.25
2023-03-19T00:41:28.761Z,1015.24
2023-03-19T00:42:28.759Z,1015.27
2023-03-19T00:43:28.760Z,1015.30
2023-03-19T00:44:28.744Z,1015.24
2023-03-19T00:45:28.706Z,1015.32
2023-03-19T00:46:28.761Z,1015.32
2023-03-19T00:47:28.689Z,1015.32
2023-03-19T00:48:28.692Z,1015.31
2023-03-19T00:49:28.661Z,1015.33
2023-03-19T00:50:28.658Z,1015.37
2023-03-19T00:51:28.635Z,1015.35
2023-03-19T00:52:28.627Z,1015.37
2023-03-19T00:53:28.622Z,1015.38
2023-03-19T00:54:28.602Z,1015.44
2023-03-19T00:55:28.575Z,1015.45
2023-03-19T00:56:28.587Z,1015.45
2023-03-19T00:57:28.569Z,1015.43
2023-03-19T00:58:28.569Z,1015.45
2023-03-19T00:59:28.578Z,1015.47
2023-03-19T01:00:28.519Z,1015.41
2023-03-19T01:01:28.564Z,1015.41
2023-03-19T01:02:28.521Z,1015.44
2023-03-19T01:03:28.508Z,1015.46
2023-03-19T01:04:28.495Z,1015.49
2023-03-19T01:05:28.438Z,1015.52
2023-03-19T01:06:28.445Z,1015.51
2023-03-19T01:07:28.418Z,1015.53
2023-03-19T01:08:28.421Z,1015.50
2023-03-19T01:09:28.373Z,1015.49
2023-03-19T01:10:28.400Z,1015.47
2023-03-19T01:11:28.359Z,1015.45
2023-03-19T01:12:28.343Z,1015.45
2023-03-19T01:13:28.349Z,1015.46
2023-03-19T01:14:28.318Z,1015.44
2023-03-19T01:15:28.337Z,1015.45
2023-03-19T01:16:28.299Z,1015.40
2023-03-19T01:17:28.279Z,1015.42
2023-03-19T01:18:28.298Z,1015.42
2023-03-19T01:19:28.255Z,1015.40
2023-03-19T01:20:28.251Z,1015.38
2023-03-19T01:21:28.222Z,1015.44
2023-03-19T01:22:28.225Z,1015.48
2023-03-19T01:23:28.240Z,1015.49
2023-03-19T01:24:28.192Z,1015.47
2023-03-19T01:25:28.185Z,1015.48
2023-03-19T01:26:28.160Z,1015.49
2023-03-19T01:27:28.153Z,1015.44
2023-03-19T01:28:28.166Z,1015.46
2023-03-19T01:29:28.126Z,1015.42
2023-03-19T01:30:28.109Z,1015.45
2023-03-19T01:31:28.209Z,1015.44
2023-03-19T01:32:28.084Z,1015.40
2023-03-19T01:33:28.091Z,1015.43
2023-03-19T01:34:28.071Z,1015.43
2023-03-19T01:35:28.043Z,1015.44
2023-03-19T01:36:28.055Z,1015.45
2023-03-19T01:37:28.012Z,1015.48
2023-03-19T01:38:28.031Z,1015.45
2023-03-19T01:39:27.988Z,1015.44
2023-03-19T01:40:27.976Z,1015.46
2023-03-19T01:41:27.960Z,1015.43
2023-03-19T01:42:27.971Z,1015.43
2023-03-19T01:43:27.969Z,1015.46
2023-03-19T01:44:27.939Z,1015.56
2023-03-19T01:45:27.913Z,1015.57
2023-03-19T01:46:27.986Z,1015.54
2023-03-19T01:47:27.883Z,1015.55
2023-03-19T01:48:27.925Z,1015.56
2023-03-19T01:49:27.870Z,1015.55
2023-03-19T01:50:27.852Z,1015.56
2023-03-19T01:51:27.838Z,1015.55
2023-03-19T01:52:27.818Z,1015.49
2023-03-19T01:53:27.844Z,1015.53
2023-03-19T01:54:27.788Z,1015.58
2023-03-19T01:55:27.780Z,1015.54
2023-03-19T01:56:27.766Z,1015.56
2023-03-19T01:57:27.762Z,1015.55
2023-03-19T01:58:27.950Z,1015.57
2023-03-19T01:59:27.742Z,1015.56
2023-03-19T02:00:27.718Z,1015.60
2023-03-19T02:01:27.740Z,1015.60
2023-03-19T02:02:27.685Z,1015.63
2023-03-19T02:03:27.694Z,1015.60
2023-03-19T02:04:27.750Z,1015.59
2023-03-19T02:05:27.662Z,1015.59
2023-03-19T02:06:27.627Z,1015.59
2023-03-19T02:07:27.620Z,1015.62
2023-03-19T02:08:27.617Z,1015.58
2023-03-19T02:09:27.597Z,1015.59
2023-03-19T02:10:27.573Z,1015.61
2023-03-19T02:11:27.571Z,1015.62
2023-03-19T02:12:27.564Z,1015.61
2023-03-19T02:13:27.601Z,1015.61
2023-03-19T02:14:27.533Z,1015.57
2023-03-19T02:15:27.515Z,1015.56
2023-03-19T02:16:27.520Z,1015.64
2023-03-19T02:17:27.523Z,1015.54
2023-03-19T02:18:27.499Z,1015.57
2023-03-19T02:19:27.461Z,1015.58
2023-03-19T02:20:27.452Z,1015.56
2023-03-19T02:21:27.434Z,1015.55
2023-03-19T02:22:27.425Z,1015.56
2023-03-19T02:23:27.428Z,1015.56
2023-03-19T02:24:27.395Z,1015.56
2023-03-19T02:25:27.399Z,1015.60
2023-03-19T02:26:27.365Z,1015.60
2023-03-19T02:27:27.356Z,1015.59
2023-03-19T02:28:27.367Z,1015.63
2023-03-19T02:29:27.334Z,1015.58
2023-03-19T02:30:27.328Z,1015.58
2023-03-19T02:31:27.342Z,1015.63
2023-03-19T02:32:27.302Z,1015.62
2023-03-19T02:33:27.305Z,1015.65
2023-03-19T02:34:27.249Z,1015.63
2023-03-19T02:35:27.253Z,1015.71
2023-03-19T02:36:27.235Z,1015.70
2023-03-19T02:37:27.227Z,1015.68
2023-03-19T02:38:27.221Z,1015.67
2023-03-19T02:39:27.211Z,1015.64
2023-03-19T02:40:27.181Z,1015.64
2023-03-19T02:41:27.172Z,1015.64
2023-03-19T02:42:27.156Z,1015.66
2023-03-19T02:43:27.159Z,1015.67
2023-03-19T02:44:27.150Z,1015.63
2023-03-19T02:45:27.121Z,1015.65
2023-03-19T02:46:27.188Z,1015.60
2023-03-19T02:47:27.101Z,1015.60
2023-03-19T02:48:27.076Z,1015.56
2023-03-19T02:49:27.085Z,1015.58
2023-03-19T02:50:27.044Z,1015.58
2023-03-19T02:51:27.038Z,1015.53
2023-03-19T02:52:27.032Z,1015.52
2023-03-19T02:53:27.008Z,1015.52
2023-03-19T02:54:27.012Z,1015.50
2023-03-19T02:55:27.025Z,1015.49
2023-03-19T02:56:26.978Z,1015.54
2023-03-19T02:57:26.989Z,1015.55
2023-03-19T02:58:26.925Z,1015.57
2023-03-19T02:59:26.954Z,1015.58
2023-03-19T03:00:26.932Z,1015.52
2023-03-19T03:01:26.911Z,1015.54
2023-03-19T03:02:26.950Z,1015.55
2023-03-19T03:03:26.910Z,1015.51
2023-03-19T03:04:26.882Z,1015.51
2023-03-19T03:05:26.859Z,1015.52
2023-03-19T03:06:26.849Z,1015.54
2023-03-19T03:07:26.828Z,1015.55
2023-03-19T03:08:26.822Z,1015.55
2023-03-19T03:09:26.828Z,1015.63
2023-03-19T03:10:26.788Z,1015.60
2023-03-19T03:11:26.784Z,1015.66
2023-03-19T03:12:26.764Z,1015.63
2023-03-19T03:13:26.755Z,1015.66
2023-03-19T03:14:26.766Z,1015.60
2023-03-19T03:15:26.737Z,1015.61
2023-03-19T03:16:26.809Z,1015.59
2023-03-19T03:17:26.704Z,1015.60
2023-03-19T03:18:26.707Z,1015.63
2023-03-19T03:19:26.715Z,1015.64
2023-03-19T03:20:26.655Z,1015.66
2023-03-19T03:21:26.656Z,1015.66
2023-03-19T03:22:26.627Z,1015.66
2023-03-19T03:23:26.629Z,1015.65
2023-03-19T03:24:26.643Z,1015.68
2023-03-19T03:25:26.625Z,1015.72
2023-03-19T03:26:26.581Z,1015.70
2023-03-19T03:27:26.573Z,1015.71
2023-03-19T03:28:26.563Z,1015.69
2023-03-19T03:29:26.570Z,1015.67
2023-03-19T03:30:26.541Z,1015.73
2023-03-19T03:31:26.543Z,1015.73
2023-03-19T03:32:26.506Z,1015.71
2023-03-19T03:33:26.499Z,1015.72
2023-03-19T03:34:26.488Z,1015.75
2023-03-19T03:35:26.512Z,1015.72
2023-03-19T03:36:26.448Z,1015.75
2023-03-19T03:37:26.433Z,1015.77
2023-03-19T03:38:26.427Z,1015.79
2023-03-19T03:39:26.446Z,1015.79
2023-03-19T03:40:26.406Z,1015.80
2023-03-19T03:41:26.385Z,1015.86
2023-03-19T03:42:26.368Z,1015.84
2023-03-19T03:43:26.384Z,1015.87
2023-03-19T03:44:26.362Z,1015.92
2023-03-19T03:45:26.412Z,1015.89
2023-03-19T03:46:26.331Z,1015.92
2023-03-19T03:47:26.313Z,1015.95
2023-03-19T03:48:26.293Z,1015.91
2023-03-19T03:49:26.312Z,1015.94
2023-03-19T03:50:26.261Z,1015.95
2023-03-19T03:51:26.275Z,1015.91
2023-03-19T03:52:26.240Z,1015.94
2023-03-19T03:53:26.238Z,1015.89
2023-03-19T03:54:26.237Z,1015.90
2023-03-19T03:55:26.212Z,1015.96
2023-03-19T03:56:26.205Z,1015.92
2023-03-19T03:57:26.186Z,1015.90
2023-03-19T03:58:26.167Z,1015.91
2023-03-19T03:59:26.169Z,1015.93
2023-03-19T04:00:26.135Z,1015.92
2023-03-19T04:01:26.130Z,1015.96
2023-03-19T04:02:26.158Z,1015.95
2023-03-19T04:04:25.488Z,1015.90
2023-03-19T04:05:26.441Z,1015.92
2023-03-19T04:06:26.434Z,1015.92
2023-03-19T04:07:26.423Z,1015.92
2023-03-19T04:08:26.411Z,1015.91
2023-03-19T04:09:26.430Z,1015.92
2023-03-19T04:10:26.411Z,1015.96
2023-03-19T04:11:26.373Z,1015.91
2023-03-19T04:12:26.377Z,1015.89
2023-03-19T04:13:26.352Z,1015.87
2023-03-19T04:14:26.366Z,1015.92
2023-03-19T04:15:26.318Z,1015.95
2023-03-19T04:16:26.354Z,1015.94
2023-03-19T04:17:26.304Z,1015.95
2023-03-19T04:18:26.284Z,1015.93
2023-03-19T04:19:26.324Z,1015.96
2023-03-19T04:20:26.253Z,1015.89
2023-03-19T04:21:26.302Z,1015.91
2023-03-19T04:22:26.226Z,1015.87
2023-03-19T04:23:26.234Z,1015.89
2023-03-19T04:24:26.226Z,1015.86
2023-03-19T04:25:26.202Z,1015.87
2023-03-19T04:26:26.234Z,1015.86
2023-03-19T04:27:26.175Z,1015.87
2023-03-19T04:28:26.151Z,1015.84
2023-03-19T04:29:26.164Z,1015.87
2023-03-19T04:30:26.129Z,1015.87
2023-03-19T04:31:26.166Z,1015.92
2023-03-19T04:32:26.111Z,1015.95
2023-03-19T04:33:26.100Z,1015.89
2023-03-19T04:34:26.090Z,1015.87
2023-03-19T04:35:26.103Z,1015.91
2023-03-19T04:36:26.058Z,1015.89
2023-03-19T04:37:26.049Z,1015.88
2023-03-19T04:38:26.020Z,1015.86
2023-03-19T04:39:26.050Z,1015.91
2023-03-19T04:40:25.991Z,1015.92
2023-03-19T04:41:25.990Z,1015.90
2023-03-19T04:42:25.990Z,1015.89
2023-03-19T04:43:25.972Z,1015.91
2023-03-19T04:44:25.954Z,1015.88
2023-03-19T04:45:25.993Z,1015.92
2023-03-19T04:46:25.986Z,1015.89
2023-03-19T04:47:25.908Z,1015.84
2023-03-19T04:48:25.885Z,1015.83
2023-03-19T04:49:25.942Z,1015.78
2023-03-19T04:50:25.899Z,1015.87
2023-03-19T04:51:25.856Z,1015.78
2023-03-19T04:52:25.833Z,1015.75
2023-03-19T04:53:25.853Z,1015.75
2023-03-19T04:54:25.805Z,1015.80
2023-03-19T04:55:25.836Z,1015.82
2023-03-19T04:56:25.827Z,1015.83
2023-03-19T04:57:25.773Z,1015.83
2023-03-19T04:58:25.759Z,1015.81
2023-03-19T04:59:25.803Z,1015.85
2023-03-19T05:00:25.749Z,1015.86
2023-03-19T05:01:25.762Z,1015.90
2023-03-19T05:02:25.694Z,1015.95
2023-03-19T05:03:25.765Z,1015.91
2023-03-19T05:04:25.671Z,1015.97
2023-03-19T05:05:25.718Z,1015.94
2023-03-19T05:06:25.715Z,1015.91
2023-03-19T05:07:25.651Z,1015.90
2023-03-19T05:08:25.640Z,1015.93
2023-03-19T05:09:25.614Z,1015.96
2023-03-19T05:10:25.673Z,1015.95
2023-03-19T05:11:25.646Z,1015.93
2023-03-19T05:12:25.517Z,1015.93
2023-03-19T05:13:25.527Z,1015.94
2023-03-19T05:14:25.530Z,1015.96
2023-03-19T05:15:25.544Z,1015.98
2023-03-19T05:16:25.476Z,1015.95
2023-03-19T05:17:25.465Z,1015.98
2023-03-19T05:18:25.465Z,1015.99
2023-03-19T05:19:25.433Z,1015.99
2023-03-19T05:20:25.492Z,1015.96
2023-03-19T05:21:25.416Z,1015.99
2023-03-19T05:22:25.389Z,1015.98
2023-03-19T05:23:25.389Z,1015.97
2023-03-19T05:24:25.437Z,1016.04
2023-03-19T05:25:25.368Z,1016.01
2023-03-19T05:26:25.370Z,1015.99
2023-03-19T05:27:25.333Z,1016.05
2023-03-19T05:28:25.324Z,1016.03
2023-03-19T05:29:25.314Z,1016.05
2023-03-19T05:30:25.319Z,1015.98
2023-03-19T05:31:25.337Z,1015.96
2023-03-19T05:32:25.258Z,1015.96
2023-03-19T05:33:25.274Z,1015.92
2023-03-19T05:34:25.239Z,1015.98
2023-03-19T05:35:25.302Z,1015.96
2023-03-19T05:36:25.209Z,1015.98
2023-03-19T05:37:25.204Z,1015.99
2023-03-19T05:38:25.200Z,1016.07
2023-03-19T05:39:25.172Z,1016.09
2023-03-19T05:40:25.184Z,1016.11
2023-03-19T05:41:25.215Z,1016.13
2023-03-19T05:42:25.138Z,1016.15
2023-03-19T05:43:25.129Z,1016.11
2023-03-19T05:44:25.111Z,1016.16
2023-03-19T05:45:25.124Z,1016.19
2023-03-19T05:46:25.091Z,1016.19
2023-03-19T05:47:25.088Z,1016.18
2023-03-19T05:48:25.106Z,1016.22
2023-03-19T05:49:25.035Z,1016.20
2023-03-19T05:50:25.058Z,1016.14
2023-03-19T05:51:25.017Z,1016.24
2023-03-19T05:52:25.033Z,1016.18
2023-03-19T05:53:24.983Z,1016.25
2023-03-19T05:54:25.007Z,1016.20
2023-03-19T05:55:24.956Z,1016.23
2023-03-19T05:56:24.969Z,1016.21
2023-03-19T05:57:24.965Z,1016.22
2023-03-19T05:58:24.918Z,1016.24
2023-03-19T05:59:24.903Z,1016.19
2023-03-19T06:00:24.976Z,1016.19
2023-03-19T06:01:24.905Z,1016.17
2023-03-19T06:02:24.925Z,1016.20
2023-03-19T06:03:24.863Z,1016.22
2023-03-19T06:04:25.000Z,1016.23
2023-03-19T06:05:24.856Z,1016.24
2023-03-19T06:06:24.830Z,1016.24
2023-03-19T06:07:24.793Z,1016.27
2023-03-19T06:08:24.857Z,1016.29
2023-03-19T06:09:24.792Z,1016.31
2023-03-19T06:10:24.809Z,1016.29
2023-03-19T06:11:24.777Z,1016.34
2023-03-19T06:12:24.754Z,1016.34
2023-03-19T06:13:24.715Z,1016.34
2023-03-19T06:14:24.725Z,1016.35
2023-03-19T06:15:24.776Z,1016.35
2023-03-19T06:16:24.772Z,1016.35
2023-03-19T06:17:24.669Z,1016.32
2023-03-19T06:18:24.664Z,1016.37
2023-03-19T06:19:24.650Z,1016.41
2023-03-19T06:20:24.652Z,1016.40
2023-03-19T06:21:24.624Z,1016.41
2023-03-19T06:22:24.663Z,1016.39
2023-03-19T06:23:24.599Z,1016.39
2023-03-19T06:24:24.588Z,1016.40
2023-03-19T06:25:24.582Z,1016.43
2023-03-19T06:26:24.583Z,1016.44
2023-03-19T06:27:24.556Z,1016.40
2023-03-19T06:28:24.541Z,1016.46
2023-03-19T06:29:24.513Z,1016.42
2023-03-19T06:30:24.594Z,1016.39
2023-03-19T06:31:24.553Z,1016.43
2023-03-19T06:32:24.478Z,1016.35
2023-03-19T06:33:24.471Z,1016.37
2023-03-19T06:34:24.467Z,1016.42
2023-03-19T06:35:24.488Z,1016.45
2023-03-19T06:36:24.462Z,1016.46
2023-03-19T06:37:24.419Z,1016.42
2023-03-19T06:38:24.451Z,1016.37
2023-03-19T06:39:24.391Z,1016.42
2023-03-19T06:40:24.388Z,1016.39
2023-03-19T06:41:24.357Z,1016.35
2023-03-19T06:42:24.407Z,1016.39
2023-03-19T06:43:24.344Z,1016.34
2023-03-19T06:44:24.334Z,1016.37
2023-03-19T06:45:24.327Z,1016.42
2023-03-19T06:46:24.311Z,1016.39
2023-03-19T06:47:24.275Z,1016.48
2023-03-19T06:48:24.339Z,1016.47
2023-03-19T06:49:24.257Z,1016.50
2023-03-19T06:50:24.314Z,1016.54
2023-03-19T06:51:24.245Z,1016.51
2023-03-19T06:52:24.260Z,1016.50
2023-03-19T06:53:24.245Z,1016.46
2023-03-19T06:54:24.201Z,1016.42
2023-03-19T06:55:24.207Z,1016.49
2023-03-19T06:56:24.172Z,1016.46
2023-03-19T06:57:24.206Z,1016.44
2023-03-19T06:58:24.141Z,1016.43
2023-03-19T06:59:24.127Z,1016.47
2023-03-19T07:00:24.137Z,1016.46
2023-03-19T07:01:24.231Z,1016.48
2023-03-19T07:02:24.084Z,1016.47
2023-03-19T07:03:24.076Z,1016.47
2023-03-19T07:04:24.119Z,1016.46
2023-03-19T07:05:24.107Z,1016.47
2023-03-19T07:06:24.037Z,1016.50
2023-03-19T07:07:24.024Z,1016.50
2023-03-19T07:08:24.035Z,1016.50
2023-03-19T07:09:23.992Z,1016.54
2023-03-19T07:10:24.028Z,1016.52
2023-03-19T07:11:23.968Z,1016.54
2023-03-19T07:12:24.032Z,1016.49
2023-03-19T07:13:23.939Z,1016.50
2023-03-19T07:14:23.999Z,1016.48
2023-03-19T07:15:23.941Z,1016.52
2023-03-19T07:16:24.008Z,1016.52
2023-03-19T07:17:23.904Z,1016.54
2023-03-19T07:18:23.890Z,1016.54
2023-03-19T07:19:23.942Z,1016.55
2023-03-19T07:20:23.854Z,1016.51
2023-03-19T07:21:23.864Z,1016.51
2023-03-19T07:22:23.863Z,1016.57
2023-03-19T07:23:23.815Z,1016.58
2023-03-19T07:24:23.803Z,1016.51
2023-03-19T07:25:23.790Z,1016.52
2023-03-19T07:26:23.806Z,1016.57
2023-03-19T07:27:23.753Z,1016.55
2023-03-19T07:28:23.769Z,1016.54
2023-03-19T07:29:23.795Z,1016.54
2023-03-19T07:30:23.778Z,1016.54
2023-03-19T07:31:23.789Z,1016.54
2023-03-19T07:32:23.820Z,1016.61
2023-03-19T07:33:23.698Z,1016.58
2023-03-19T07:34:23.684Z,1016.63
2023-03-19T07:35:23.727Z,1016.62
2023-03-19T07:36:23.675Z,1016.64
2023-03-19T07:37:23.684Z,1016.64
2023-03-19T07:38:23.629Z,1016.68
2023-03-19T07:39:23.621Z,1016.62
2023-03-19T07:40:23.610Z,1016.68
2023-03-19T07:41:23.700Z,1016.59
2023-03-19T07:42:23.576Z,1016.59
2023-03-19T07:43:23.557Z,1016.62
2023-03-19T07:44:23.612Z,1016.59
2023-03-19T07:45:23.557Z,1016.62
2023-03-19T07:46:23.716Z,1016.60
2023-03-19T07:47:28.913Z,1016.65
2023-03-19T07:48:23.585Z,1016.63
2023-03-19T07:49:23.495Z,1016.68
2023-03-19T07:50:23.484Z,1016.68
2023-03-19T07:51:23.573Z,1016.64
2023-03-19T07:52:23.463Z,1016.72
2023-03-19T07:53:23.453Z,1016.67
2023-03-19T07:54:23.404Z,1016.69
2023-03-19T07:55:23.406Z,1016.68
2023-03-19T07:56:23.437Z,1016.67
2023-03-19T07:57:23.346Z,1016.66
2023-03-19T07:58:23.365Z,1016.70
2023-03-19T07:59:23.378Z,1016.67
2023-03-19T08:00:23.341Z,1016.64
2023-03-19T08:01:23.348Z,1016.61
2023-03-19T08:02:23.833Z,1016.64
2023-03-19T08:03:23.309Z,1016.63
2023-03-19T08:04:23.423Z,1016.66
2023-03-19T08:05:23.356Z,1016.61
2023-03-19T08:06:23.284Z,1016.65
2023-03-19T08:07:23.295Z,1016.63
2023-03-19T08:08:23.213Z,1016.60
2023-03-19T08:09:23.207Z,1016.55
2023-03-19T08:10:23.189Z,1016.59
2023-03-19T08:11:23.303Z,1016.65
2023-03-19T08:12:23.165Z,1016.60
2023-03-19T08:13:23.149Z,1016.63
2023-03-19T08:14:23.157Z,1016.58
2023-03-19T08:15:23.135Z,1016.55
2023-03-19T08:16:23.182Z,1016.55
2023-03-19T08:17:23.147Z,1016.53
2023-03-19T08:18:23.082Z,1016.55
2023-03-19T08:19:23.090Z,1016.54
2023-03-19T08:20:23.057Z,1016.55
2023-03-19T08:21:23.109Z,1016.55
2023-03-19T08:22:23.054Z,1016.57
2023-03-19T08:23:23.033Z,1016.55
2023-03-19T08:24:23.020Z,1016.61
2023-03-19T08:25:23.007Z,1016.58
2023-03-19T08:26:23.010Z,1016.60
2023-03-19T08:27:22.980Z,1016.64
2023-03-19T08:28:23.000Z,1016.67
2023-03-19T08:29:22.944Z,1016.63
2023-03-19T08:30:22.928Z,1016.63
2023-03-19T08:31:23.323Z,1016.64
2023-03-19T08:32:22.935Z,1016.70
2023-03-19T08:33:22.890Z,1016.72
2023-03-19T08:34:22.878Z,1016.73
2023-03-19T08:35:22.966Z,1016.73
2023-03-19T08:36:22.872Z,1016.72
2023-03-19T08:37:22.847Z,1016.76
2023-03-19T08:38:22.997Z,1016.76
2023-03-19T08:39:22.830Z,1016.77
2023-03-19T08:40:22.865Z,1016.78
2023-03-19T08:41:22.918Z,1016.89
2023-03-19T08:42:22.806Z,1016.87
2023-03-19T08:43:22.775Z,1016.90
2023-03-19T08:44:22.913Z,1016.94
2023-03-19T08:45:22.941Z,1016.95
2023-03-19T08:46:22.798Z,1016.92
2023-03-19T08:47:22.721Z,1016.96
2023-03-19T08:48:22.766Z,1016.96
2023-03-19T08:49:22.674Z,1016.92
2023-03-19T08:50:22.671Z,1017.03
2023-03-19T08:51:22.709Z,1017.07
2023-03-19T08:52:22.642Z,1017.04
2023-03-19T08:53:22.633Z,1017.03
2023-03-19T08:54:23.125Z,1017.02
2023-03-19T08:55:22.610Z,1016.95
2023-03-19T08:56:22.709Z,1016.92
2023-03-19T08:57:22.582Z,1016.94
2023-03-19T08:58:22.556Z,1016.99
2023-03-19T08:59:22.589Z,1016.97
2023-03-19T09:00:22.544Z,1016.91
2023-03-19T09:01:22.660Z,1016.87
2023-03-19T09:02:22.516Z,1016.89
2023-03-19T09:03:22.499Z,1016.85
2023-03-19T09:04:22.586Z,1016.94
2023-03-19T09:05:22.486Z,1016.94
2023-03-19T09:06:22.484Z,1016.99
2023-03-19T09:07:22.437Z,1017.01
2023-03-19T09:08:22.440Z,1017.05
2023-03-19T09:09:22.408Z,1017.01
2023-03-19T09:10:22.449Z,1017.02
2023-03-19T09:11:22.481Z,1016.99
2023-03-19T09:12:22.382Z,1017.01
2023-03-19T09:13:22.394Z,1017.04
2023-03-19T09:14:22.362Z,1017.07
2023-03-19T09:15:22.351Z,1017.07
2023-03-19T09:16:22.407Z,1017.08
2023-03-19T09:17:22.320Z,1017.07
2023-03-19T09:18:22.299Z,1017.11
2023-03-19T09:19:22.292Z,1017.15
2023-03-19T09:20:22.309Z,1017.15
2023-03-19T09:21:22.321Z,1017.15
2023-03-19T09:22:22.236Z,1017.16
2023-03-19T09:23:22.240Z,1017.16
2023-03-19T09:24:22.286Z,1017.15
2023-03-19T09:25:22.225Z,1017.18
2023-03-19T09:26:22.196Z,1017.18
2023-03-19T09:27:22.251Z,1017.18
2023-03-19T09:28:22.174Z,1017.18
2023-03-19T09:29:22.158Z,1017.24
2023-03-19T09:30:22.179Z,1017.26
2023-03-19T09:31:22.177Z,1017.28
2023-03-19T09:32:22.132Z,1017.28
2023-03-19T09:33:22.128Z,1017.31
2023-03-19T09:34:22.089Z,1017.31
2023-03-19T09:35:22.071Z,1017.25
2023-03-19T09:36:22.094Z,1017.33
2023-03-19T09:37:22.066Z,1017.29
2023-03-19T09:38:22.059Z,1017.33
2023-03-19T09:39:22.052Z,1017.31
2023-03-19T09:40:22.108Z,1017.32
2023-03-19T09:41:21.997Z,1017.38
2023-03-19T09:42:22.058Z,1017.45
2023-03-19T09:43:21.977Z,1017.44
2023-03-19T09:44:21.962Z,1017.45
2023-03-19T09:45:22.008Z,1017.49
2023-03-19T09:46:22.846Z,1017.46
2023-03-19T09:47:21.948Z,1017.47
2023-03-19T09:48:21.920Z,1017.37
2023-03-19T09:49:21.895Z,1017.40
2023-03-19T09:50:21.903Z,1017.37
2023-03-19T09:51:21.912Z,1017.38
2023-03-19T09:52:21.890Z,1017.39
2023-03-19T09:53:21.851Z,1017.40
2023-03-19T09:54:21.833Z,1017.39
2023-03-19T09:55:21.823Z,1017.37
2023-03-19T09:56:21.814Z,1017.43
2023-03-19T09:57:21.821Z,1017.47
2023-03-19T09:58:21.775Z,1017.43
2023-03-19T09:59:21.774Z,1017.44
2023-03-19T10:00:21.750Z,1017.46
2023-03-19T10:01:21.802Z,1017.44
2023-03-19T10:02:21.759Z,1017.46
2023-03-19T10:03:21.714Z,1017.44
2023-03-19T10:04:21.781Z,1017.45
2023-03-19T10:05:21.696Z,1017.48
2023-03-19T10:06:21.682Z,1017.47
2023-03-19T10:07:21.694Z,1017.51
2023-03-19T10:08:21.659Z,1017.49
2023-03-19T10:09:21.649Z,1017.48
2023-03-19T10:10:21.652Z,1017.48
2023-03-19T10:11:21.623Z,1017.51
2023-03-19T10:12:21.613Z,1017.51
2023-03-19T10:13:21.598Z,1017.53
2023-03-19T10:14:21.573Z,1017.47
2023-03-19T10:15:21.554Z,1017.51
2023-03-19T10:16:21.570Z,1017.48
2023-03-19T10:17:21.565Z,1017.47
2023-03-19T10:18:21.537Z,1017.48
2023-03-19T10:19:22.266Z,1017.49
2023-03-19T10:20:21.510Z,1017.52
2023-03-19T10:21:21.488Z,1017.53
2023-03-19T10:22:21.530Z,1017.47
2023-03-19T10:23:21.464Z,1017.53
2023-03-19T10:24:21.442Z,1017.56
2023-03-19T10:25:21.466Z,1017.52
2023-03-19T10:26:21.444Z,1017.49
2023-03-19T10:27:21.437Z,1017.47
2023-03-19T10:28:21.390Z,1017.49
2023-03-19T10:29:21.374Z,1017.46
2023-03-19T10:30:21.375Z,1017.51
2023-03-19T10:31:21.397Z,1017.48
2023-03-19T10:32:21.349Z,1017.46
2023-03-19T10:33:21.352Z,1017.40
2023-03-19T10:34:21.309Z,1017.44
2023-03-19T10:35:21.301Z,1017.41
2023-03-19T10:36:21.314Z,1017.45
2023-03-19T10:37:21.278Z,1017.46
2023-03-19T10:38:21.276Z,1017.52
2023-03-19T10:39:21.260Z,1017.48
2023-03-19T10:40:21.226Z,1017.49
2023-03-19T10:41:21.255Z,1017.50
2023-03-19T10:42:21.239Z,1017.46
2023-03-19T10:43:21.234Z,1017.52
2023-03-19T10:44:21.200Z,1017.48
2023-03-19T10:45:21.184Z,1017.45
2023-03-19T10:46:21.309Z,1017.45
2023-03-19T10:47:21.159Z,1017.46
2023-03-19T10:48:21.176Z,1017.50
2023-03-19T10:49:21.148Z,1017.47
2023-03-19T10:50:21.111Z,1017.47
2023-03-19T10:51:21.108Z,1017.54
2023-03-19T10:52:21.075Z,1017.53
2023-03-19T10:53:21.076Z,1017.55
2023-03-19T10:54:21.062Z,1017.54
2023-03-19T10:55:21.033Z,1017.57
2023-03-19T10:56:21.057Z,1017.53
2023-03-19T10:57:21.033Z,1017.58
2023-03-19T10:58:21.033Z,1017.54
2023-03-19T10:59:20.988Z,1017.54
2023-03-19T11:00:20.966Z,1017.56
2023-03-19T11:01:21.018Z,1017.55
2023-03-19T11:02:20.969Z,1017.57
2023-03-19T11:03:20.980Z,1017.53
2023-03-19T11:04:20.922Z,1017.59
2023-03-19T11:05:20.916Z,1017.61
2023-03-19T11:06:20.917Z,1017.66
2023-03-19T11:07:20.877Z,1017.67
2023-03-19T11:08:34.845Z,1017.67
2023-03-19T11:09:20.898Z,1017.64
2023-03-19T11:10:20.849Z,1017.74
2023-03-19T11:11:20.818Z,1017.71
2023-03-19T11:12:20.810Z,1017.74
2023-03-19T11:13:20.858Z,1017.76
2023-03-19T11:14:20.797Z,1017.74
2023-03-19T11:15:20.771Z,1017.81
2023-03-19T11:16:20.878Z,1017.82
2023-03-19T11:17:20.851Z,1017.82
2023-03-19T11:18:20.795Z,1017.77
2023-03-19T11:19:20.723Z,1017.83
2023-03-19T11:20:20.719Z,1017.81
2023-03-19T11:21:20.707Z,1017.76
2023-03-19T11:22:21.143Z,1017.73
2023-03-19T11:23:20.703Z,1017.75
2023-03-19T11:24:20.648Z,1017.72
2023-03-19T11:25:20.661Z,1017.74
2023-03-19T11:26:20.641Z,1017.77
2023-03-19T11:27:20.614Z,1017.72
2023-03-19T11:28:22.497Z,1017.73
2023-03-19T11:29:20.616Z,1017.76
2023-03-19T11:30:20.573Z,1017.81
2023-03-19T11:31:20.595Z,1017.81
2023-03-19T11:32:22.319Z,1017.72
2023-03-19T11:33:20.607Z,1017.69
2023-03-19T11:34:20.541Z,1017.70
2023-03-19T11:35:20.502Z,1017.73
2023-03-19T11:36:20.622Z,1017.72
2023-03-19T11:37:20.506Z,1017.78
2023-03-19T11:38:20.628Z,1017.70
2023-03-19T11:39:20.476Z,1017.71
2023-03-19T11:40:20.452Z,1017.71
2023-03-19T11:41:26.933Z,1017.68
2023-03-19T11:42:20.406Z,1017.68
2023-03-19T11:43:20.442Z,1017.65
2023-03-19T11:44:20.387Z,1017.63
2023-03-19T11:45:20.385Z,1017.64
2023-03-19T11:46:20.415Z,1017.61
2023-03-19T11:47:27.108Z,1017.61
2023-03-19T11:48:20.414Z,1017.59
2023-03-19T11:49:20.360Z,1017.60
2023-03-19T11:50:20.325Z,1017.60
2023-03-19T11:51:20.300Z,1017.59
2023-03-19T11:52:20.303Z,1017.59
2023-03-19T11:53:20.304Z,1017.53
2023-03-19T11:54:20.365Z,1017.56
2023-03-19T11:55:20.255Z,1017.56
2023-03-19T11:56:20.237Z,1017.54
2023-03-19T11:57:20.453Z,1017.54
2023-03-19T11:58:20.229Z,1017.52
2023-03-19T11:59:20.231Z,1017.50
2023-03-19T12:00:20.227Z,1017.45
2023-03-19T12:01:20.174Z,1017.44
2023-03-19T12:02:20.374Z,1017.47
2023-03-19T12:03:20.223Z,1017.41
2023-03-19T12:04:20.166Z,1017.43
2023-03-19T12:05:20.122Z,1017.43
2023-03-19T12:06:20.208Z,1017.43